sensor_id;sensor_type;location;lat;lon;timestamp;P1;durP1;ratioP1;P2;durP2;ratioP2
31482;SDS011;18103;52.246;8.052;2022-09-27T00:00:26;10.90;;;5.57;;
31482;SDS011;18103;52.246;8.052;2022-09-27T00:02:52;9.80;;;5.03;;
31482;SDS011;18103;52.246;8.052;2022-09-27T00:05:17;11.03;;;5.47;;
31482;SDS011;18103;52.246;8.052;2022-09-27T00:07:43;9.43;;;5.30;;
31482;SDS011;18103;52.246;8.052;2022-09-27T00:10:09;10.17;;;4.80;;
31482;SDS011;18103;52.246;8.052;2022-09-27T00:12:34;13.47;;;5.30;;
31482;SDS011;18103;52.246;8.052;2022-09-27T00:15:00;11.90;;;5.03;;
31482;SDS011;18103;52.246;8.052;2022-09-27T00:17:26;10.67;;;4.90;;
31482;SDS011;18103;52.246;8.052;2022-09-27T00:19:52;8.23;;;4.90;;
31482;SDS011;18103;52.246;8.052;2022-09-27T00:22:20;9.40;;;5.33;;
31482;SDS011;18103;52.246;8.052;2022-09-27T00:24:47;12.00;;;5.30;;
31482;SDS011;18103;52.246;8.052;2022-09-27T00:27:12;7.27;;;4.67;;
31482;SDS011;18103;52.246;8.052;2022-09-27T00:29:38;15.00;;;4.23;;
31482;SDS011;18103;52.246;8.052;2022-09-27T00:32:03;8.70;;;4.07;;
31482;SDS011;18103;52.246;8.052;2022-09-27T00:34:28;15.63;;;4.87;;
31482;SDS011;18103;52.246;8.052;2022-09-27T00:36:54;6.27;;;3.70;;
31482;SDS011;18103;52.246;8.052;2022-09-27T00:39:19;8.30;;;3.90;;
31482;SDS011;18103;52.246;8.052;2022-09-27T00:41:45;11.10;;;3.83;;
31482;SDS011;18103;52.246;8.052;2022-09-27T00:46:49;7.37;;;3.63;;
31482;SDS011;18103;52.246;8.052;2022-09-27T00:49:26;14.57;;;4.20;;
31482;SDS011;18103;52.246;8.052;2022-09-27T00:52:01;5.37;;;2.90;;
31482;SDS011;18103;52.246;8.052;2022-09-27T00:54:33;7.47;;;3.67;;
31482;SDS011;18103;52.246;8.052;2022-09-27T00:57:02;10.33;;;3.50;;
31482;SDS011;18103;52.246;8.052;2022-09-27T00:59:54;8.17;;;2.90;;
31482;SDS011;18103;52.246;8.052;2022-09-27T01:02:22;8.47;;;3.43;;
31482;SDS011;18103;52.246;8.052;2022-09-27T01:04:48;12.83;;;3.37;;
31482;SDS011;18103;52.246;8.052;2022-09-27T01:07:15;8.20;;;2.63;;
31482;SDS011;18103;52.246;8.052;2022-09-27T01:09:40;6.20;;;2.60;;
31482;SDS011;18103;52.246;8.052;2022-09-27T01:12:10;5.90;;;2.43;;
31482;SDS011;18103;52.246;8.052;2022-09-27T01:28:01;9.50;;;2.67;;
31482;SDS011;18103;52.246;8.052;2022-09-27T01:30:49;4.87;;;1.97;;
31482;SDS011;18103;52.246;8.052;2022-09-27T01:33:36;5.97;;;1.53;;
31482;SDS011;18103;52.246;8.052;2022-09-27T01:36:41;7.77;;;1.67;;
31482;SDS011;18103;52.246;8.052;2022-09-27T01:42:11;5.23;;;1.73;;
31482;SDS011;18103;52.246;8.052;2022-09-27T01:45:13;3.40;;;1.80;;
31482;SDS011;18103;52.246;8.052;2022-09-27T01:47:49;7.17;;;1.60;;
31482;SDS011;18103;52.246;8.052;2022-09-27T01:50:23;14.07;;;1.60;;
31482;SDS011;18103;52.246;8.052;2022-09-27T01:52:57;9.17;;;1.57;;
31482;SDS011;18103;52.246;8.052;2022-09-27T01:55:29;7.20;;;1.40;;
31482;SDS011;18103;52.246;8.052;2022-09-27T01:57:59;3.27;;;1.40;;
31482;SDS011;18103;52.246;8.052;2022-09-27T02:00:30;11.30;;;2.20;;
31482;SDS011;18103;52.246;8.052;2022-09-27T02:02:58;8.00;;;1.47;;
31482;SDS011;18103;52.246;8.052;2022-09-27T02:06:03;8.10;;;1.63;;
31482;SDS011;18103;52.246;8.052;2022-09-27T02:08:31;3.13;;;1.80;;
31482;SDS011;18103;52.246;8.052;2022-09-27T02:11:08;4.87;;;1.77;;
31482;SDS011;18103;52.246;8.052;2022-09-27T02:13:39;9.53;;;1.67;;
31482;SDS011;18103;52.246;8.052;2022-09-27T02:21:16;9.20;;;2.20;;
31482;SDS011;18103;52.246;8.052;2022-09-27T02:23:45;7.27;;;2.17;;
31482;SDS011;18103;52.246;8.052;2022-09-27T02:26:23;4.63;;;2.00;;
31482;SDS011;18103;52.246;8.052;2022-09-27T02:31:55;5.50;;;2.10;;
31482;SDS011;18103;52.246;8.052;2022-09-27T02:34:27;4.13;;;2.07;;
31482;SDS011;18103;52.246;8.052;2022-09-27T02:36:55;4.13;;;1.80;;
31482;SDS011;18103;52.246;8.052;2022-09-27T02:39:23;3.73;;;2.17;;
31482;SDS011;18103;52.246;8.052;2022-09-27T02:41:49;6.47;;;2.30;;
31482;SDS011;18103;52.246;8.052;2022-09-27T02:44:16;10.73;;;1.63;;
31482;SDS011;18103;52.246;8.052;2022-09-27T02:49:59;3.97;;;1.80;;
31482;SDS011;18103;52.246;8.052;2022-09-27T02:58:07;10.77;;;1.73;;
31482;SDS011;18103;52.246;8.052;2022-09-27T03:03:34;6.77;;;2.40;;
31482;SDS011;18103;52.246;8.052;2022-09-27T03:06:08;3.47;;;1.90;;
31482;SDS011;18103;52.246;8.052;2022-09-27T03:08:36;11.73;;;2.00;;
31482;SDS011;18103;52.246;8.052;2022-09-27T03:11:02;6.07;;;1.90;;
31482;SDS011;18103;52.246;8.052;2022-09-27T03:13:28;4.73;;;1.70;;
31482;SDS011;18103;52.246;8.052;2022-09-27T03:15:54;3.27;;;1.73;;
31482;SDS011;18103;52.246;8.052;2022-09-27T03:18:19;4.97;;;1.73;;
31482;SDS011;18103;52.246;8.052;2022-09-27T03:20:45;3.47;;;1.57;;
31482;SDS011;18103;52.246;8.052;2022-09-27T03:23:10;6.10;;;1.77;;
31482;SDS011;18103;52.246;8.052;2022-09-27T03:25:36;7.87;;;1.50;;
31482;SDS011;18103;52.246;8.052;2022-09-27T03:28:01;2.57;;;1.70;;
31482;SDS011;18103;52.246;8.052;2022-09-27T03:30:27;5.03;;;1.50;;
31482;SDS011;18103;52.246;8.052;2022-09-27T03:32:52;7.37;;;1.70;;
31482;SDS011;18103;52.246;8.052;2022-09-27T03:35:18;4.47;;;1.80;;
31482;SDS011;18103;52.246;8.052;2022-09-27T03:37:43;2.73;;;1.60;;
31482;SDS011;18103;52.246;8.052;2022-09-27T03:40:11;2.83;;;1.70;;
31482;SDS011;18103;52.246;8.052;2022-09-27T03:42:36;4.73;;;2.73;;
31482;SDS011;18103;52.246;8.052;2022-09-27T03:45:02;4.27;;;2.10;;
31482;SDS011;18103;52.246;8.052;2022-09-27T03:47:28;2.67;;;1.50;;
31482;SDS011;18103;52.246;8.052;2022-09-27T03:49:53;12.23;;;1.80;;
31482;SDS011;18103;52.246;8.052;2022-09-27T03:52:18;9.93;;;1.67;;
31482;SDS011;18103;52.246;8.052;2022-09-27T03:54:44;4.20;;;2.20;;
31482;SDS011;18103;52.246;8.052;2022-09-27T03:57:09;4.03;;;2.03;;
31482;SDS011;18103;52.246;8.052;2022-09-27T03:59:35;6.97;;;1.87;;
31482;SDS011;18103;52.246;8.052;2022-09-27T04:02:00;5.07;;;1.83;;
31482;SDS011;18103;52.246;8.052;2022-09-27T04:04:26;5.20;;;1.93;;
31482;SDS011;18103;52.246;8.052;2022-09-27T04:06:51;9.20;;;1.50;;
31482;SDS011;18103;52.246;8.052;2022-09-27T04:09:16;6.30;;;1.70;;
31482;SDS011;18103;52.246;8.052;2022-09-27T04:11:42;5.03;;;1.90;;
31482;SDS011;18103;52.246;8.052;2022-09-27T04:14:07;6.93;;;1.47;;
31482;SDS011;18103;52.246;8.052;2022-09-27T04:16:33;3.27;;;1.53;;
31482;SDS011;18103;52.246;8.052;2022-09-27T04:18:58;8.23;;;1.47;;
31482;SDS011;18103;52.246;8.052;2022-09-27T04:21:25;4.10;;;1.50;;
31482;SDS011;18103;52.246;8.052;2022-09-27T04:23:51;5.97;;;1.97;;
31482;SDS011;18103;52.246;8.052;2022-09-27T04:26:16;5.67;;;1.20;;
31482;SDS011;18103;52.246;8.052;2022-09-27T04:28:41;2.93;;;1.47;;
31482;SDS011;18103;52.246;8.052;2022-09-27T04:31:07;3.40;;;1.20;;
31482;SDS011;18103;52.246;8.052;2022-09-27T04:33:35;3.80;;;1.40;;
31482;SDS011;18103;52.246;8.052;2022-09-27T04:36:00;3.23;;;1.43;;
31482;SDS011;18103;52.246;8.052;2022-09-27T04:38:44;4.20;;;1.27;;
31482;SDS011;18103;52.246;8.052;2022-09-27T04:41:09;1.63;;;1.17;;
31482;SDS011;18103;52.246;8.052;2022-09-27T04:43:35;1.67;;;1.23;;
31482;SDS011;18103;52.246;8.052;2022-09-27T04:46:00;10.93;;;1.57;;
31482;SDS011;18103;52.246;8.052;2022-09-27T04:48:25;1.57;;;1.17;;
31482;SDS011;18103;52.246;8.052;2022-09-27T04:50:54;1.57;;;0.93;;
31482;SDS011;18103;52.246;8.052;2022-09-27T04:53:21;3.60;;;1.30;;
31482;SDS011;18103;52.246;8.052;2022-09-27T04:55:46;3.47;;;1.10;;
31482;SDS011;18103;52.246;8.052;2022-09-27T04:58:14;3.77;;;1.00;;
31482;SDS011;18103;52.246;8.052;2022-09-27T05:00:39;2.70;;;1.10;;
31482;SDS011;18103;52.246;8.052;2022-09-27T05:03:07;6.97;;;1.30;;
31482;SDS011;18103;52.246;8.052;2022-09-27T05:05:32;2.03;;;1.20;;
31482;SDS011;18103;52.246;8.052;2022-09-27T05:07:58;2.27;;;1.10;;
31482;SDS011;18103;52.246;8.052;2022-09-27T05:10:23;1.80;;;1.20;;
31482;SDS011;18103;52.246;8.052;2022-09-27T05:12:49;4.07;;;1.20;;
31482;SDS011;18103;52.246;8.052;2022-09-27T05:15:14;3.37;;;1.30;;
31482;SDS011;18103;52.246;8.052;2022-09-27T05:17:39;2.63;;;1.10;;
31482;SDS011;18103;52.246;8.052;2022-09-27T05:20:05;3.63;;;1.37;;
31482;SDS011;18103;52.246;8.052;2022-09-27T05:22:30;4.40;;;1.10;;
31482;SDS011;18103;52.246;8.052;2022-09-27T05:24:56;6.13;;;1.10;;
31482;SDS011;18103;52.246;8.052;2022-09-27T05:27:21;4.93;;;1.90;;
31482;SDS011;18103;52.246;8.052;2022-09-27T05:29:46;3.73;;;1.10;;
31482;SDS011;18103;52.246;8.052;2022-09-27T05:32:12;4.47;;;1.10;;
31482;SDS011;18103;52.246;8.052;2022-09-27T05:34:38;2.87;;;1.33;;
31482;SDS011;18103;52.246;8.052;2022-09-27T05:37:04;5.93;;;0.90;;
31482;SDS011;18103;52.246;8.052;2022-09-27T05:39:29;5.60;;;1.10;;
31482;SDS011;18103;52.246;8.052;2022-09-27T05:41:55;2.90;;;1.03;;
31482;SDS011;18103;52.246;8.052;2022-09-27T05:44:21;4.50;;;1.47;;
31482;SDS011;18103;52.246;8.052;2022-09-27T05:46:47;4.53;;;1.10;;
31482;SDS011;18103;52.246;8.052;2022-09-27T05:49:12;0.77;;;0.60;;
31482;SDS011;18103;52.246;8.052;2022-09-27T05:51:37;3.87;;;1.13;;
31482;SDS011;18103;52.246;8.052;2022-09-27T05:54:03;5.07;;;1.07;;
31482;SDS011;18103;52.246;8.052;2022-09-27T05:56:28;3.03;;;0.97;;
31482;SDS011;18103;52.246;8.052;2022-09-27T05:58:53;4.67;;;1.17;;
31482;SDS011;18103;52.246;8.052;2022-09-27T06:01:19;0.90;;;0.63;;
31482;SDS011;18103;52.246;8.052;2022-09-27T06:03:47;4.37;;;1.00;;
31482;SDS011;18103;52.246;8.052;2022-09-27T06:06:12;2.77;;;0.70;;
31482;SDS011;18103;52.246;8.052;2022-09-27T06:08:39;1.17;;;0.73;;
31482;SDS011;18103;52.246;8.052;2022-09-27T06:11:06;2.63;;;0.90;;
31482;SDS011;18103;52.246;8.052;2022-09-27T06:13:34;0.70;;;0.60;;
31482;SDS011;18103;52.246;8.052;2022-09-27T06:16:03;1.27;;;0.90;;
31482;SDS011;18103;52.246;8.052;2022-09-27T06:18:30;3.97;;;1.13;;
31482;SDS011;18103;52.246;8.052;2022-09-27T06:20:57;1.33;;;0.70;;
31482;SDS011;18103;52.246;8.052;2022-09-27T06:23:23;2.37;;;0.60;;
31482;SDS011;18103;52.246;8.052;2022-09-27T06:25:49;4.57;;;0.73;;
31482;SDS011;18103;52.246;8.052;2022-09-27T06:28:15;5.17;;;0.80;;
31482;SDS011;18103;52.246;8.052;2022-09-27T06:30:45;2.53;;;0.70;;
31482;SDS011;18103;52.246;8.052;2022-09-27T06:33:12;1.50;;;0.80;;
31482;SDS011;18103;52.246;8.052;2022-09-27T06:35:40;2.00;;;0.67;;
31482;SDS011;18103;52.246;8.052;2022-09-27T06:38:10;3.63;;;0.63;;
31482;SDS011;18103;52.246;8.052;2022-09-27T06:40:37;2.23;;;0.60;;
31482;SDS011;18103;52.246;8.052;2022-09-27T06:43:04;2.73;;;0.67;;
31482;SDS011;18103;52.246;8.052;2022-09-27T06:45:32;4.27;;;1.23;;
31482;SDS011;18103;52.246;8.052;2022-09-27T06:47:58;2.80;;;0.90;;
31482;SDS011;18103;52.246;8.052;2022-09-27T06:50:26;2.23;;;1.00;;
31482;SDS011;18103;52.246;8.052;2022-09-27T06:52:56;4.13;;;1.00;;
31482;SDS011;18103;52.246;8.052;2022-09-27T06:55:22;2.63;;;0.80;;
31482;SDS011;18103;52.246;8.052;2022-09-27T06:57:47;1.30;;;0.60;;
31482;SDS011;18103;52.246;8.052;2022-09-27T07:00:31;2.63;;;0.90;;
31482;SDS011;18103;52.246;8.052;2022-09-27T07:02:57;2.33;;;1.00;;
31482;SDS011;18103;52.246;8.052;2022-09-27T07:05:26;1.30;;;0.67;;
31482;SDS011;18103;52.246;8.052;2022-09-27T07:07:53;2.10;;;0.93;;
31482;SDS011;18103;52.246;8.052;2022-09-27T07:10:21;3.97;;;0.80;;
31482;SDS011;18103;52.246;8.052;2022-09-27T07:12:50;0.97;;;0.60;;
31482;SDS011;18103;52.246;8.052;2022-09-27T07:15:19;9.83;;;1.10;;
31482;SDS011;18103;52.246;8.052;2022-09-27T07:17:48;1.77;;;0.57;;
31482;SDS011;18103;52.246;8.052;2022-09-27T07:20:20;3.70;;;0.80;;
31482;SDS011;18103;52.246;8.052;2022-09-27T07:22:46;1.17;;;0.70;;
31482;SDS011;18103;52.246;8.052;2022-09-27T07:25:11;3.70;;;0.80;;
31482;SDS011;18103;52.246;8.052;2022-09-27T07:27:39;2.10;;;0.60;;
31482;SDS011;18103;52.246;8.052;2022-09-27T07:30:08;3.63;;;0.63;;
31482;SDS011;18103;52.246;8.052;2022-09-27T07:32:34;6.63;;;1.00;;
31482;SDS011;18103;52.246;8.052;2022-09-27T07:35:01;4.60;;;0.67;;
31482;SDS011;18103;52.246;8.052;2022-09-27T07:37:27;5.63;;;1.07;;
31482;SDS011;18103;52.246;8.052;2022-09-27T07:39:52;0.77;;;0.73;;
31482;SDS011;18103;52.246;8.052;2022-09-27T07:42:18;4.83;;;0.97;;
31482;SDS011;18103;52.246;8.052;2022-09-27T07:44:44;0.77;;;0.50;;
31482;SDS011;18103;52.246;8.052;2022-09-27T07:47:09;6.67;;;1.00;;
31482;SDS011;18103;52.246;8.052;2022-09-27T07:49:35;4.13;;;0.77;;
31482;SDS011;18103;52.246;8.052;2022-09-27T07:52:00;7.37;;;0.90;;
31482;SDS011;18103;52.246;8.052;2022-09-27T07:54:26;3.03;;;0.90;;
31482;SDS011;18103;52.246;8.052;2022-09-27T07:56:51;6.37;;;0.90;;
31482;SDS011;18103;52.246;8.052;2022-09-27T07:59:17;4.30;;;0.83;;
31482;SDS011;18103;52.246;8.052;2022-09-27T08:01:43;6.97;;;0.93;;
31482;SDS011;18103;52.246;8.052;2022-09-27T08:04:10;4.83;;;1.57;;
31482;SDS011;18103;52.246;8.052;2022-09-27T08:06:35;6.37;;;1.17;;
31482;SDS011;18103;52.246;8.052;2022-09-27T08:09:04;7.37;;;0.90;;
31482;SDS011;18103;52.246;8.052;2022-09-27T08:11:30;7.73;;;0.77;;
31482;SDS011;18103;52.246;8.052;2022-09-27T08:13:55;2.30;;;0.70;;
31482;SDS011;18103;52.246;8.052;2022-09-27T08:16:21;3.57;;;0.90;;
31482;SDS011;18103;52.246;8.052;2022-09-27T08:18:46;2.40;;;1.07;;
31482;SDS011;18103;52.246;8.052;2022-09-27T08:21:12;2.80;;;0.80;;
31482;SDS011;18103;52.246;8.052;2022-09-27T08:23:37;5.47;;;1.03;;
31482;SDS011;18103;52.246;8.052;2022-09-27T08:26:02;3.90;;;1.13;;
31482;SDS011;18103;52.246;8.052;2022-09-27T08:28:28;8.90;;;0.80;;
31482;SDS011;18103;52.246;8.052;2022-09-27T08:30:53;6.87;;;1.10;;
31482;SDS011;18103;52.246;8.052;2022-09-27T08:33:23;4.40;;;1.10;;
31482;SDS011;18103;52.246;8.052;2022-09-27T08:35:50;2.77;;;0.87;;
31482;SDS011;18103;52.246;8.052;2022-09-27T08:38:15;5.73;;;0.90;;
31482;SDS011;18103;52.246;8.052;2022-09-27T08:40:47;4.90;;;1.20;;
31482;SDS011;18103;52.246;8.052;2022-09-27T08:43:35;4.17;;;0.90;;
31482;SDS011;18103;52.246;8.052;2022-09-27T08:49:23;7.77;;;1.07;;
31482;SDS011;18103;52.246;8.052;2022-09-27T08:51:55;7.83;;;0.97;;
31482;SDS011;18103;52.246;8.052;2022-09-27T08:54:23;5.20;;;1.13;;
31482;SDS011;18103;52.246;8.052;2022-09-27T08:56:53;7.27;;;0.93;;
31482;SDS011;18103;52.246;8.052;2022-09-27T08:59:27;6.33;;;1.00;;
31482;SDS011;18103;52.246;8.052;2022-09-27T09:01:58;7.50;;;0.73;;
31482;SDS011;18103;52.246;8.052;2022-09-27T09:04:25;1.03;;;0.67;;
31482;SDS011;18103;52.246;8.052;2022-09-27T09:15:24;10.63;;;1.40;;
31482;SDS011;18103;52.246;8.052;2022-09-27T09:18:08;1.33;;;0.90;;
31482;SDS011;18103;52.246;8.052;2022-09-27T09:23:22;5.17;;;1.23;;
31482;SDS011;18103;52.246;8.052;2022-09-27T09:33:37;2.23;;;0.87;;
31482;SDS011;18103;52.246;8.052;2022-09-27T09:38:48;0.93;;;0.70;;
31482;SDS011;18103;52.246;8.052;2022-09-27T09:41:24;6.13;;;1.00;;
31482;SDS011;18103;52.246;8.052;2022-09-27T09:48:56;3.50;;;0.90;;
31482;SDS011;18103;52.246;8.052;2022-09-27T09:51:32;5.23;;;0.70;;
31482;SDS011;18103;52.246;8.052;2022-09-27T09:54:04;5.67;;;1.13;;
31482;SDS011;18103;52.246;8.052;2022-09-27T09:56:39;2.87;;;0.70;;
31482;SDS011;18103;52.246;8.052;2022-09-27T09:59:13;2.67;;;0.83;;
31482;SDS011;18103;52.246;8.052;2022-09-27T10:01:48;5.80;;;0.87;;
31482;SDS011;18103;52.246;8.052;2022-09-27T10:04:18;4.83;;;1.00;;
31482;SDS011;18103;52.246;8.052;2022-09-27T10:06:49;7.27;;;0.90;;
31482;SDS011;18103;52.246;8.052;2022-09-27T10:09:16;3.23;;;1.00;;
31482;SDS011;18103;52.246;8.052;2022-09-27T10:11:46;2.17;;;0.83;;
31482;SDS011;18103;52.246;8.052;2022-09-27T10:14:16;2.43;;;0.60;;
31482;SDS011;18103;52.246;8.052;2022-09-27T10:16:45;2.13;;;0.70;;
31482;SDS011;18103;52.246;8.052;2022-09-27T10:19:20;5.53;;;1.17;;
31482;SDS011;18103;52.246;8.052;2022-09-27T10:21:52;2.83;;;0.83;;
31482;SDS011;18103;52.246;8.052;2022-09-27T10:24:20;6.50;;;0.77;;
31482;SDS011;18103;52.246;8.052;2022-09-27T10:26:48;1.57;;;0.90;;
31482;SDS011;18103;52.246;8.052;2022-09-27T10:31:56;4.40;;;0.90;;
31482;SDS011;18103;52.246;8.052;2022-09-27T10:34:26;6.87;;;1.03;;
31482;SDS011;18103;52.246;8.052;2022-09-27T10:37:01;3.47;;;0.63;;
31482;SDS011;18103;52.246;8.052;2022-09-27T10:39:29;8.47;;;1.00;;
31482;SDS011;18103;52.246;8.052;2022-09-27T10:41:54;4.03;;;0.73;;
31482;SDS011;18103;52.246;8.052;2022-09-27T10:44:27;4.17;;;0.70;;
31482;SDS011;18103;52.246;8.052;2022-09-27T10:46:59;4.83;;;0.90;;
31482;SDS011;18103;52.246;8.052;2022-09-27T10:49:37;2.23;;;0.53;;
31482;SDS011;18103;52.246;8.052;2022-09-27T10:52:09;3.10;;;0.60;;
31482;SDS011;18103;52.246;8.052;2022-09-27T10:54:40;1.80;;;0.50;;
31482;SDS011;18103;52.246;8.052;2022-09-27T10:59:38;0.87;;;0.50;;
31482;SDS011;18103;52.246;8.052;2022-09-27T11:02:18;0.70;;;0.40;;
31482;SDS011;18103;52.246;8.052;2022-09-27T11:05:01;7.80;;;1.00;;
31482;SDS011;18103;52.246;8.052;2022-09-27T11:07:34;0.97;;;0.60;;
31482;SDS011;18103;52.246;8.052;2022-09-27T11:10:02;1.27;;;0.80;;
31482;SDS011;18103;52.246;8.052;2022-09-27T11:21:30;1.10;;;0.70;;
31482;SDS011;18103;52.246;8.052;2022-09-27T11:24:08;2.23;;;0.80;;
31482;SDS011;18103;52.246;8.052;2022-09-27T11:35:39;1.50;;;0.57;;
31482;SDS011;18103;52.246;8.052;2022-09-27T11:39:32;1.83;;;0.60;;
31482;SDS011;18103;52.246;8.052;2022-09-27T11:41:39;1.23;;;0.50;;
31482;SDS011;18103;52.246;8.052;2022-09-27T11:47:18;1.23;;;0.47;;
31482;SDS011;18103;52.246;8.052;2022-09-27T12:06:21;1.53;;;0.60;;
31482;SDS011;18103;52.246;8.052;2022-09-27T12:09:04;0.30;;;0.30;;
31482;SDS011;18103;52.246;8.052;2022-09-27T12:11:47;0.50;;;0.40;;
31482;SDS011;18103;52.246;8.052;2022-09-27T12:14:18;0.40;;;0.40;;
31482;SDS011;18103;52.246;8.052;2022-09-27T12:17:01;0.60;;;0.50;;
31482;SDS011;18103;52.246;8.052;2022-09-27T12:19:34;1.37;;;0.50;;
31482;SDS011;18103;52.246;8.052;2022-09-27T12:22:04;0.57;;;0.30;;
31482;SDS011;18103;52.246;8.052;2022-09-27T12:24:34;0.40;;;0.30;;
31482;SDS011;18103;52.246;8.052;2022-09-27T12:27:02;0.33;;;0.20;;
31482;SDS011;18103;52.246;8.052;2022-09-27T12:29:34;8.23;;;0.40;;
31482;SDS011;18103;52.246;8.052;2022-09-27T12:32:15;0.20;;;0.10;;
31482;SDS011;18103;52.246;8.052;2022-09-27T12:37:40;1.03;;;0.20;;
31482;SDS011;18103;52.246;8.052;2022-09-27T12:45:43;0.20;;;0.20;;
31482;SDS011;18103;52.246;8.052;2022-09-27T12:48:35;0.10;;;0.10;;
31482;SDS011;18103;52.246;8.052;2022-09-27T12:51:08;0.10;;;0.10;;
31482;SDS011;18103;52.246;8.052;2022-09-27T12:53:42;1.20;;;0.30;;
31482;SDS011;18103;52.246;8.052;2022-09-27T12:56:38;0.67;;;0.40;;
31482;SDS011;18103;52.246;8.052;2022-09-27T13:02:12;1.13;;;0.70;;
31482;SDS011;18103;52.246;8.052;2022-09-27T13:12:56;1.47;;;0.70;;
31482;SDS011;18103;52.246;8.052;2022-09-27T13:15:30;1.40;;;0.70;;
31482;SDS011;18103;52.246;8.052;2022-09-27T13:17:58;1.00;;;0.57;;
31482;SDS011;18103;52.246;8.052;2022-09-27T13:22:59;0.83;;;0.70;;
31482;SDS011;18103;52.246;8.052;2022-09-27T13:25:49;4.90;;;1.00;;
31482;SDS011;18103;52.246;8.052;2022-09-27T13:31:06;1.03;;;0.90;;
31482;SDS011;18103;52.246;8.052;2022-09-27T13:36:23;2.50;;;1.00;;
31482;SDS011;18103;52.246;8.052;2022-09-27T13:41:23;1.70;;;0.77;;
31482;SDS011;18103;52.246;8.052;2022-09-27T13:46:20;1.80;;;0.80;;
31482;SDS011;18103;52.246;8.052;2022-09-27T13:48:51;1.00;;;0.70;;
31482;SDS011;18103;52.246;8.052;2022-09-27T13:54:36;2.10;;;1.10;;
31482;SDS011;18103;52.246;8.052;2022-09-27T13:57:02;1.23;;;0.90;;
31482;SDS011;18103;52.246;8.052;2022-09-27T13:59:36;3.43;;;0.97;;
31482;SDS011;18103;52.246;8.052;2022-09-27T14:04:40;2.40;;;0.83;;
31482;SDS011;18103;52.246;8.052;2022-09-27T14:07:13;1.63;;;0.87;;
31482;SDS011;18103;52.246;8.052;2022-09-27T14:09:43;1.33;;;0.80;;
31482;SDS011;18103;52.246;8.052;2022-09-27T14:12:16;1.33;;;0.80;;
31482;SDS011;18103;52.246;8.052;2022-09-27T14:14:45;1.10;;;1.00;;
31482;SDS011;18103;52.246;8.052;2022-09-27T14:17:13;6.40;;;0.97;;
31482;SDS011;18103;52.246;8.052;2022-09-27T14:19:40;0.70;;;0.70;;
31482;SDS011;18103;52.246;8.052;2022-09-27T14:22:12;2.20;;;0.97;;
31482;SDS011;18103;52.246;8.052;2022-09-27T14:27:12;0.63;;;0.40;;
31482;SDS011;18103;52.246;8.052;2022-09-27T14:29:49;2.23;;;0.27;;
31482;SDS011;18103;52.246;8.052;2022-09-27T14:32:19;0.53;;;0.13;;
31482;SDS011;18103;52.246;8.052;2022-09-27T14:34:52;0.20;;;0.20;;
31482;SDS011;18103;52.246;8.052;2022-09-27T14:37:31;1.97;;;0.30;;
31482;SDS011;18103;52.246;8.052;2022-09-27T14:40:03;0.20;;;0.20;;
31482;SDS011;18103;52.246;8.052;2022-09-27T14:42:33;2.07;;;0.20;;
31482;SDS011;18103;52.246;8.052;2022-09-27T14:45:05;1.73;;;0.20;;
31482;SDS011;18103;52.246;8.052;2022-09-27T14:47:46;1.80;;;0.10;;
31482;SDS011;18103;52.246;8.052;2022-09-27T14:50:21;0.63;;;0.13;;
31482;SDS011;18103;52.246;8.052;2022-09-27T14:52:48;0.30;;;0.20;;
31482;SDS011;18103;52.246;8.052;2022-09-27T14:55:19;2.47;;;0.20;;
31482;SDS011;18103;52.246;8.052;2022-09-27T14:57:53;0.37;;;0.37;;
31482;SDS011;18103;52.246;8.052;2022-09-27T15:00:21;0.60;;;0.50;;
31482;SDS011;18103;52.246;8.052;2022-09-27T15:02:50;3.00;;;0.40;;
31482;SDS011;18103;52.246;8.052;2022-09-27T15:05:20;2.50;;;0.63;;
31482;SDS011;18103;52.246;8.052;2022-09-27T15:07:47;0.80;;;0.40;;
31482;SDS011;18103;52.246;8.052;2022-09-27T15:10:14;0.70;;;0.50;;
31482;SDS011;18103;52.246;8.052;2022-09-27T15:12:47;1.90;;;0.90;;
31482;SDS011;18103;52.246;8.052;2022-09-27T15:15:17;0.70;;;0.40;;
31482;SDS011;18103;52.246;8.052;2022-09-27T15:17:48;2.10;;;0.87;;
31482;SDS011;18103;52.246;8.052;2022-09-27T15:20:22;1.10;;;0.60;;
31482;SDS011;18103;52.246;8.052;2022-09-27T15:22:52;1.20;;;0.80;;
31482;SDS011;18103;52.246;8.052;2022-09-27T15:25:28;2.23;;;1.00;;
31482;SDS011;18103;52.246;8.052;2022-09-27T15:28:20;0.70;;;0.70;;
31482;SDS011;18103;52.246;8.052;2022-09-27T15:30:56;1.07;;;0.93;;
31482;SDS011;18103;52.246;8.052;2022-09-27T15:33:26;1.33;;;0.90;;
31482;SDS011;18103;52.246;8.052;2022-09-27T15:35:56;0.80;;;0.67;;
31482;SDS011;18103;52.246;8.052;2022-09-27T15:38:31;0.57;;;0.53;;
31482;SDS011;18103;52.246;8.052;2022-09-27T15:41:07;1.07;;;0.40;;
31482;SDS011;18103;52.246;8.052;2022-09-27T15:43:41;1.37;;;0.80;;
31482;SDS011;18103;52.246;8.052;2022-09-27T15:46:33;1.90;;;0.90;;
31482;SDS011;18103;52.246;8.052;2022-09-27T15:51:41;1.30;;;0.73;;
31482;SDS011;18103;52.246;8.052;2022-09-27T15:54:08;0.53;;;0.47;;
31482;SDS011;18103;52.246;8.052;2022-09-27T15:56:34;0.47;;;0.40;;
31482;SDS011;18103;52.246;8.052;2022-09-27T15:59:00;0.53;;;0.43;;
31482;SDS011;18103;52.246;8.052;2022-09-27T16:01:29;0.43;;;0.40;;
31482;SDS011;18103;52.246;8.052;2022-09-27T16:03:57;0.37;;;0.37;;
31482;SDS011;18103;52.246;8.052;2022-09-27T16:06:23;0.37;;;0.37;;
31482;SDS011;18103;52.246;8.052;2022-09-27T16:08:51;4.53;;;0.50;;
31482;SDS011;18103;52.246;8.052;2022-09-27T16:11:16;2.80;;;0.73;;
31482;SDS011;18103;52.246;8.052;2022-09-27T16:13:42;0.67;;;0.30;;
31482;SDS011;18103;52.246;8.052;2022-09-27T16:16:14;0.40;;;0.40;;
31482;SDS011;18103;52.246;8.052;2022-09-27T16:18:42;1.43;;;0.33;;
31482;SDS011;18103;52.246;8.052;2022-09-27T16:21:08;0.97;;;0.40;;
31482;SDS011;18103;52.246;8.052;2022-09-27T16:23:34;1.33;;;0.50;;
31482;SDS011;18103;52.246;8.052;2022-09-27T16:26:00;0.40;;;0.40;;
31482;SDS011;18103;52.246;8.052;2022-09-27T16:28:25;4.23;;;0.63;;
31482;SDS011;18103;52.246;8.052;2022-09-27T16:30:50;0.83;;;0.47;;
31482;SDS011;18103;52.246;8.052;2022-09-27T16:33:16;2.47;;;0.53;;
31482;SDS011;18103;52.246;8.052;2022-09-27T16:35:41;1.00;;;0.90;;
31482;SDS011;18103;52.246;8.052;2022-09-27T16:38:07;1.43;;;0.80;;
31482;SDS011;18103;52.246;8.052;2022-09-27T16:40:33;1.47;;;0.97;;
31482;SDS011;18103;52.246;8.052;2022-09-27T16:42:59;1.07;;;0.67;;
31482;SDS011;18103;52.246;8.052;2022-09-27T16:45:25;2.97;;;0.47;;
31482;SDS011;18103;52.246;8.052;2022-09-27T16:47:58;0.83;;;0.80;;
31482;SDS011;18103;52.246;8.052;2022-09-27T16:50:24;1.53;;;0.50;;
31482;SDS011;18103;52.246;8.052;2022-09-27T16:53:08;1.33;;;0.70;;
31482;SDS011;18103;52.246;8.052;2022-09-27T16:55:34;2.10;;;0.57;;
31482;SDS011;18103;52.246;8.052;2022-09-27T16:58:00;0.93;;;0.60;;
31482;SDS011;18103;52.246;8.052;2022-09-27T17:00:27;0.63;;;0.40;;
31482;SDS011;18103;52.246;8.052;2022-09-27T17:02:55;1.13;;;0.60;;
31482;SDS011;18103;52.246;8.052;2022-09-27T17:05:21;1.30;;;0.50;;
31482;SDS011;18103;52.246;8.052;2022-09-27T17:07:50;0.70;;;0.63;;
31482;SDS011;18103;52.246;8.052;2022-09-27T17:10:16;0.57;;;0.57;;
31482;SDS011;18103;52.246;8.052;2022-09-27T17:12:43;3.20;;;0.63;;
31482;SDS011;18103;52.246;8.052;2022-09-27T17:15:08;1.23;;;0.60;;
31482;SDS011;18103;52.246;8.052;2022-09-27T17:17:34;1.97;;;0.60;;
31482;SDS011;18103;52.246;8.052;2022-09-27T17:19:59;3.83;;;0.50;;
31482;SDS011;18103;52.246;8.052;2022-09-27T17:22:24;0.57;;;0.37;;
31482;SDS011;18103;52.246;8.052;2022-09-27T17:24:50;2.00;;;0.50;;
31482;SDS011;18103;52.246;8.052;2022-09-27T17:27:15;2.20;;;0.50;;
31482;SDS011;18103;52.246;8.052;2022-09-27T17:29:41;1.10;;;0.63;;
31482;SDS011;18103;52.246;8.052;2022-09-27T17:32:06;2.53;;;0.50;;
31482;SDS011;18103;52.246;8.052;2022-09-27T17:34:32;0.90;;;0.70;;
31482;SDS011;18103;52.246;8.052;2022-09-27T17:36:58;0.30;;;0.30;;